Pagina principale
METAR-TAF:

METAR-TAF

Aeroporti :

Messina, Italia

latitudine: 38-12N, longitudine: 015-33E, altezza: 59 m

Osservazione

Il bollettino è stato emesso 39 minuti fa, alle 16:55 UTC
Vento 6 kt da nord/nord-est
Temperature 16°C
Umidità 72%
Pressione 1012 hPa
Visibilità 10 km o più
Nubi sparse ad un'altezza di 3000 ft

METAR: LICF 181655Z 02006KT 9999 SCT030 16/11 Q1012 RMK SCT QUK / QUL / VIS MAR 14 KM MON INVIS VAR RAPID VIS MIN 9999

Ora: 18:34 (17:34 UTC)


TAF: mancante

Osservazioni e previsioni meteorologiche di più di 4000 aeroporti (messaggi METAR e TAF).

Le stazioni disponibili sono rappresentate dai dischi gialli e rossi sulla carta.

Puntare il mouse per vedere il nome della stazione.

Clicca sopra per visualizzare le osservazioni e previsioni meteorologiche.

Per cambiare la mappa : fare clic sui pulsanti verdi con una croce nera per ingrandire, il pulsante verde con un trattino per diminuire, o sulla freccia verde per le mappe adiacenti.


METAR-TAF: